Cobbs Creek, Virginia
Current Conditions -  °F | °C
As of 7:35 AM on Friday 24 Oct 2014 (Local Time) from KW75 Reporting Station
Clear Clear  
Wind Chill: 53°   Ceiling: Unl
Heat Index: 53°   Visibility: 10mi
Dew Point: 46°   Wind: 8mph
Humidity: 75%   Direction: 310°NW
Pressure: 29.96"   Gusts: 17mph
Location:  37.51°N, 76.4°W
Report Text: KW75 241135Z AUTO 31007G15KT 280V340 10SM CLR 12/08 A2996 RMK AO1 T01180075
Loading
Personal Weather Stations






























Interactive Weather Map
Tropical Storm Tracking
New forecast layout! Learn more

10-Day Weather Forecast

Advertisements
Track Severe Weather on mobile